createdAt,value
2023-04-19T00:00:07.179Z,74.39
2023-04-19T00:01:07.172Z,74.80
2023-04-19T00:02:07.250Z,74.69
2023-04-19T00:03:07.360Z,74.69
2023-04-19T00:04:07.261Z,74.80
2023-04-19T00:05:07.159Z,74.80
2023-04-19T00:06:07.111Z,75.00
2023-04-19T00:07:07.110Z,74.69
2023-04-19T00:08:07.101Z,74.39
2023-04-19T00:09:12.108Z,74.52
2023-04-19T00:10:07.069Z,75.34
2023-04-19T00:11:07.084Z,74.73
2023-04-19T00:12:07.052Z,75.14
2023-04-19T00:13:07.036Z,74.93
2023-04-19T00:14:07.025Z,75.04
2023-04-19T00:15:07.009Z,75.14
2023-04-19T00:16:06.996Z,75.04
2023-04-19T00:17:07.116Z,74.43
2023-04-19T00:18:06.995Z,75.24
2023-04-19T00:19:06.965Z,75.24
2023-04-19T00:20:11.990Z,74.93
2023-04-19T00:21:06.952Z,74.80
2023-04-19T00:22:06.947Z,74.63
2023-04-19T00:23:06.929Z,74.59
2023-04-19T00:24:06.903Z,74.80
2023-04-19T00:25:06.898Z,74.39
2023-04-19T00:26:06.890Z,74.59
2023-04-19T00:27:06.906Z,74.39
2023-04-19T00:28:06.861Z,75.00
2023-04-19T00:29:06.861Z,74.80
2023-04-19T00:30:06.834Z,75.00
2023-04-19T00:31:11.863Z,74.80
2023-04-19T00:32:06.829Z,74.49
2023-04-19T00:33:06.911Z,75.21
2023-04-19T00:34:06.790Z,75.04
2023-04-19T00:35:06.785Z,75.04
2023-04-19T00:36:06.766Z,75.41
2023-04-19T00:37:06.780Z,74.93
2023-04-19T00:38:06.743Z,75.21
2023-04-19T00:39:06.731Z,74.93
2023-04-19T00:40:06.726Z,74.59
2023-04-19T00:41:06.721Z,75.10
2023-04-19T00:42:11.755Z,75.24
2023-04-19T00:43:06.691Z,75.14
2023-04-19T00:44:06.686Z,75.04
2023-04-19T00:45:06.662Z,74.93
2023-04-19T00:46:06.663Z,75.14
2023-04-19T00:47:06.659Z,75.24
2023-04-19T00:48:06.688Z,75.34
2023-04-19T00:49:06.624Z,75.04
2023-04-19T00:50:06.609Z,75.14
2023-04-19T00:51:06.595Z,74.93
2023-04-19T00:52:06.601Z,75.04
2023-04-19T00:53:11.602Z,75.21
2023-04-19T00:54:06.573Z,75.34
2023-04-19T00:55:06.554Z,75.45
2023-04-19T00:56:06.545Z,75.45
2023-04-19T00:57:06.538Z,75.14
2023-04-19T00:58:06.537Z,75.04
2023-04-19T00:59:06.512Z,75.04
2023-04-19T01:00:06.497Z,75.24
2023-04-19T01:01:06.647Z,74.93
2023-04-19T01:02:06.543Z,75.14
2023-04-19T01:03:06.609Z,74.93
2023-04-19T01:04:11.551Z,75.00
2023-04-19T01:05:06.447Z,75.24
2023-04-19T01:06:06.430Z,74.90
2023-04-19T01:07:06.425Z,74.93
2023-04-19T01:08:06.399Z,74.93
2023-04-19T01:09:06.390Z,75.04
2023-04-19T01:10:06.394Z,75.65
2023-04-19T01:11:06.371Z,75.14
2023-04-19T01:12:06.365Z,74.90
2023-04-19T01:13:06.349Z,74.84
2023-04-19T01:14:06.357Z,74.84
2023-04-19T01:15:11.344Z,75.04
2023-04-19T01:16:06.363Z,75.00
2023-04-19T01:17:06.325Z,75.14
2023-04-19T01:18:06.309Z,74.97
2023-04-19T01:19:06.282Z,75.14
2023-04-19T01:20:06.275Z,75.34
2023-04-19T01:21:06.253Z,75.14
2023-04-19T01:22:06.244Z,75.14
2023-04-19T01:23:06.261Z,75.14
2023-04-19T01:24:06.218Z,75.04
2023-04-19T01:25:06.203Z,74.84
2023-04-19T01:26:11.218Z,75.14
2023-04-19T01:27:06.199Z,75.14
2023-04-19T01:28:06.203Z,74.84
2023-04-19T01:29:06.176Z,75.45
2023-04-19T01:30:06.182Z,74.52
2023-04-19T01:31:06.192Z,74.43
2023-04-19T01:32:06.126Z,74.90
2023-04-19T01:33:06.200Z,74.59
2023-04-19T01:34:06.111Z,74.84
2023-04-19T01:35:06.096Z,75.10
2023-04-19T01:36:06.079Z,74.49
2023-04-19T01:37:11.087Z,75.04
2023-04-19T01:38:06.068Z,74.73
2023-04-19T01:39:06.047Z,74.76
2023-04-19T01:40:06.041Z,75.04
2023-04-19T01:41:06.032Z,74.84
2023-04-19T01:42:06.058Z,74.93
2023-04-19T01:43:06.006Z,74.84
2023-04-19T01:44:05.997Z,75.14
2023-04-19T01:45:05.981Z,75.14
2023-04-19T01:46:06.000Z,75.14
2023-04-19T01:47:06.078Z,74.73
2023-04-19T01:48:10.977Z,75.04
2023-04-19T01:49:05.933Z,75.24
2023-04-19T01:50:05.926Z,74.93
2023-04-19T01:51:05.907Z,74.84
2023-04-19T01:52:05.899Z,75.14
2023-04-19T01:53:05.911Z,75.14
2023-04-19T01:54:05.879Z,75.14
2023-04-19T01:55:05.865Z,75.04
2023-04-19T01:56:05.865Z,74.93
2023-04-19T01:57:05.839Z,75.17
2023-04-19T01:58:05.841Z,75.24
2023-04-19T01:59:10.859Z,74.93
2023-04-19T02:00:05.809Z,75.17
2023-04-19T02:01:05.851Z,74.84
2023-04-19T02:02:05.894Z,74.93
2023-04-19T02:03:05.931Z,74.93
2023-04-19T02:04:05.841Z,75.00
2023-04-19T02:05:05.750Z,75.14
2023-04-19T02:06:05.741Z,74.73
2023-04-19T02:07:05.737Z,74.52
2023-04-19T02:08:05.735Z,74.32
2023-04-19T02:09:05.725Z,74.84
2023-04-19T02:10:10.719Z,75.14
2023-04-19T02:11:05.676Z,75.14
2023-04-19T02:12:05.678Z,75.24
2023-04-19T02:13:05.681Z,74.66
2023-04-19T02:14:05.648Z,74.73
2023-04-19T02:15:05.640Z,74.43
2023-04-19T02:16:05.681Z,74.32
2023-04-19T02:17:05.611Z,74.84
2023-04-19T02:18:05.686Z,74.84
2023-04-19T02:19:05.606Z,74.43
2023-04-19T02:20:05.581Z,74.59
2023-04-19T02:21:10.589Z,74.43
2023-04-19T02:22:05.564Z,74.52
2023-04-19T02:23:05.557Z,74.43
2023-04-19T02:24:05.542Z,74.73
2023-04-19T02:25:05.524Z,74.84
2023-04-19T02:26:05.510Z,74.73
2023-04-19T02:27:05.503Z,74.56
2023-04-19T02:28:05.511Z,74.63
2023-04-19T02:29:06.964Z,74.73
2023-04-19T02:30:05.481Z,74.63
2023-04-19T02:31:05.456Z,74.43
2023-04-19T02:32:10.496Z,74.52
2023-04-19T02:33:05.470Z,74.84
2023-04-19T02:34:05.438Z,74.63
2023-04-19T02:35:05.428Z,75.24
2023-04-19T02:36:05.396Z,75.14
2023-04-19T02:37:05.386Z,75.45
2023-04-19T02:38:05.380Z,75.38
2023-04-19T02:39:05.368Z,75.45
2023-04-19T02:40:05.361Z,75.55
2023-04-19T02:41:05.341Z,75.65
2023-04-19T02:42:05.330Z,75.85
2023-04-19T02:43:10.355Z,75.45
2023-04-19T02:44:05.307Z,75.45
2023-04-19T02:45:05.295Z,75.24
2023-04-19T02:46:05.346Z,75.55
2023-04-19T02:47:05.281Z,75.34
2023-04-19T02:48:05.324Z,75.45
2023-04-19T02:49:05.247Z,75.48
2023-04-19T02:50:05.470Z,75.34
2023-04-19T02:51:05.229Z,75.34
2023-04-19T02:52:05.231Z,75.75
2023-04-19T02:53:05.214Z,75.65
2023-04-19T02:54:10.212Z,75.04
2023-04-19T02:55:05.196Z,75.45
2023-04-19T02:56:05.170Z,75.55
2023-04-19T02:57:05.178Z,75.34
2023-04-19T02:58:05.157Z,75.14
2023-04-19T02:59:05.135Z,75.14
2023-04-19T03:00:05.123Z,75.34
2023-04-19T03:01:05.144Z,75.24
2023-04-19T03:02:05.116Z,75.65
2023-04-19T03:03:05.191Z,75.27
2023-04-19T03:04:05.104Z,75.24
2023-04-19T03:05:10.100Z,75.68
2023-04-19T03:06:05.075Z,75.65
2023-04-19T03:07:05.042Z,75.55
2023-04-19T03:08:05.036Z,75.68
2023-04-19T03:09:05.017Z,76.20
2023-04-19T03:10:05.030Z,76.06
2023-04-19T03:11:04.992Z,75.79
2023-04-19T03:12:04.981Z,75.75
2023-04-19T03:13:04.984Z,75.96
2023-04-19T03:14:04.957Z,75.89
2023-04-19T03:15:04.948Z,76.61
2023-04-19T03:16:10.014Z,76.57
2023-04-19T03:17:04.932Z,76.37
2023-04-19T03:18:04.960Z,75.68
2023-04-19T03:19:04.901Z,76.09
2023-04-19T03:20:04.901Z,76.50
2023-04-19T03:21:04.945Z,76.30
2023-04-19T03:22:04.868Z,75.99
2023-04-19T03:23:04.892Z,76.30
2023-04-19T03:24:04.837Z,76.40
2023-04-19T03:25:04.829Z,76.30
2023-04-19T03:26:04.826Z,76.30
2023-04-19T03:27:09.824Z,76.50
2023-04-19T03:28:04.802Z,76.30
2023-04-19T03:29:04.790Z,76.30
2023-04-19T03:30:04.777Z,76.30
2023-04-19T03:31:04.762Z,76.30
2023-04-19T03:32:04.761Z,76.50
2023-04-19T03:33:04.794Z,76.20
2023-04-19T03:34:04.721Z,76.30
2023-04-19T03:35:04.715Z,75.99
2023-04-19T03:36:04.705Z,76.09
2023-04-19T03:37:04.725Z,76.71
2023-04-19T03:38:09.704Z,76.20
2023-04-19T03:39:04.666Z,76.09
2023-04-19T03:40:04.647Z,76.40
2023-04-19T03:41:04.657Z,76.40
2023-04-19T03:42:04.626Z,76.30
2023-04-19T03:43:04.633Z,76.91
2023-04-19T03:44:04.618Z,77.12
2023-04-19T03:45:04.589Z,77.22
2023-04-19T03:46:04.595Z,77.22
2023-04-19T03:47:04.574Z,77.12
2023-04-19T03:48:04.624Z,76.84
2023-04-19T03:49:09.569Z,76.81
2023-04-19T03:50:04.542Z,76.71
2023-04-19T03:51:04.520Z,77.32
2023-04-19T03:52:04.510Z,77.32
2023-04-19T03:53:04.543Z,77.32
2023-04-19T03:54:04.491Z,77.32
2023-04-19T03:55:04.476Z,76.71
2023-04-19T03:56:04.474Z,76.81
2023-04-19T03:57:04.448Z,76.81
2023-04-19T03:58:04.445Z,76.81
2023-04-19T03:59:04.451Z,76.71
2023-04-19T04:00:09.441Z,77.32
2023-04-19T04:01:04.407Z,76.81
2023-04-19T04:02:04.471Z,76.81
2023-04-19T04:03:04.565Z,76.40
2023-04-19T04:04:05.145Z,76.40
2023-04-19T04:05:04.421Z,76.71
2023-04-19T04:06:04.349Z,76.40
2023-04-19T04:07:04.349Z,76.81
2023-04-19T04:08:04.335Z,77.32
2023-04-19T04:09:04.334Z,77.42
2023-04-19T04:10:04.302Z,76.81
2023-04-19T04:11:09.319Z,76.61
2023-04-19T04:12:04.273Z,76.30
2023-04-19T04:13:04.280Z,76.09
2023-04-19T04:14:04.262Z,76.40
2023-04-19T04:15:04.247Z,76.30
2023-04-19T04:16:04.281Z,76.40
2023-04-19T04:17:04.231Z,75.99
2023-04-19T04:18:04.258Z,76.20
2023-04-19T04:19:04.207Z,75.99
2023-04-19T04:20:04.185Z,76.20
2023-04-19T04:21:04.214Z,76.09
2023-04-19T04:22:09.181Z,76.30
2023-04-19T04:23:04.157Z,76.30
2023-04-19T04:24:04.150Z,76.40
2023-04-19T04:25:04.158Z,76.40
2023-04-19T04:26:04.120Z,76.81
2023-04-19T04:27:04.108Z,76.50
2023-04-19T04:28:04.106Z,76.20
2023-04-19T04:29:04.106Z,76.30
2023-04-19T04:30:04.081Z,76.84
2023-04-19T04:31:04.067Z,77.36
2023-04-19T04:32:04.068Z,77.36
2023-04-19T04:33:09.080Z,76.95
2023-04-19T04:34:04.035Z,77.36
2023-04-19T04:35:04.038Z,77.26
2023-04-19T04:36:04.014Z,77.22
2023-04-19T04:37:04.025Z,77.46
2023-04-19T04:38:10.998Z,77.36
2023-04-19T04:39:03.986Z,77.26
2023-04-19T04:40:03.981Z,77.26
2023-04-19T04:41:03.987Z,77.15
2023-04-19T04:42:03.955Z,77.15
2023-04-19T04:43:03.954Z,77.26
2023-04-19T04:44:12.556Z,77.36
2023-04-19T04:45:03.922Z,77.36
2023-04-19T04:46:03.968Z,76.95
2023-04-19T04:47:03.903Z,77.15
2023-04-19T04:48:03.948Z,77.15
2023-04-19T04:49:03.875Z,77.05
2023-04-19T04:50:03.865Z,77.15
2023-04-19T04:51:03.854Z,77.05
2023-04-19T04:52:03.849Z,77.05
2023-04-19T04:53:03.840Z,77.05
2023-04-19T04:54:03.828Z,77.15
2023-04-19T04:55:08.835Z,77.26
2023-04-19T04:56:03.800Z,77.05
2023-04-19T04:57:03.855Z,77.15
2023-04-19T04:58:03.778Z,77.15
2023-04-19T04:59:03.793Z,77.15
2023-04-19T05:00:03.752Z,76.81
2023-04-19T05:01:03.771Z,77.12
2023-04-19T05:02:03.786Z,76.81
2023-04-19T05:03:03.960Z,76.91
2023-04-19T05:04:03.762Z,77.12
2023-04-19T05:05:03.714Z,77.22
2023-04-19T05:06:08.710Z,77.32
2023-04-19T05:07:03.682Z,77.32
2023-04-19T05:08:03.684Z,77.01
2023-04-19T05:09:03.677Z,76.67
2023-04-19T05:10:03.634Z,76.50
2023-04-19T05:11:03.631Z,76.78
2023-04-19T05:12:03.621Z,76.47
2023-04-19T05:13:03.700Z,76.37
2023-04-19T05:14:03.608Z,76.16
2023-04-19T05:15:03.583Z,76.20
2023-04-19T05:16:03.626Z,75.85
2023-04-19T05:17:08.589Z,76.30
2023-04-19T05:18:03.589Z,75.85
2023-04-19T05:19:03.605Z,76.26
2023-04-19T05:20:03.523Z,76.37
2023-04-19T05:21:03.514Z,76.67
2023-04-19T05:22:03.524Z,76.67
2023-04-19T05:23:03.520Z,75.75
2023-04-19T05:24:03.498Z,76.06
2023-04-19T05:25:03.461Z,75.85
2023-04-19T05:26:03.453Z,76.57
2023-04-19T05:27:03.452Z,76.06
2023-04-19T05:28:08.490Z,76.16
2023-04-19T05:29:03.438Z,75.55
2023-04-19T05:30:03.410Z,76.06
2023-04-19T05:31:03.409Z,76.06
2023-04-19T05:32:03.385Z,76.12
2023-04-19T05:33:03.429Z,75.82
2023-04-19T05:34:03.384Z,75.92
2023-04-19T05:35:03.367Z,76.23
2023-04-19T05:36:03.350Z,75.99
2023-04-19T05:37:03.339Z,75.82
2023-04-19T05:38:03.322Z,75.78
2023-04-19T05:39:08.336Z,75.37
2023-04-19T05:40:03.292Z,75.07
2023-04-19T05:41:03.290Z,75.07
2023-04-19T05:42:03.290Z,74.97
2023-04-19T05:43:03.262Z,74.87
2023-04-19T05:44:03.287Z,75.07
2023-04-19T05:45:05.866Z,74.97
2023-04-19T05:46:03.239Z,75.21
2023-04-19T05:47:03.223Z,75.07
2023-04-19T05:48:03.233Z,74.87
2023-04-19T05:49:03.202Z,74.42
2023-04-19T05:50:08.222Z,73.77
2023-04-19T05:51:03.167Z,72.48
2023-04-19T05:52:03.158Z,71.15
2023-04-19T05:53:03.161Z,70.61
2023-04-19T05:54:03.167Z,70.17
2023-04-19T05:55:03.125Z,68.51
2023-04-19T05:56:03.128Z,68.99
2023-04-19T05:57:03.124Z,67.83
2023-04-19T05:58:03.089Z,67.33
2023-04-19T05:59:03.097Z,67.40
2023-04-19T06:00:03.297Z,66.58
2023-04-19T06:01:08.163Z,66.46
2023-04-19T06:02:03.199Z,66.05
2023-04-19T06:03:03.212Z,65.23
2023-04-19T06:04:03.151Z,65.36
2023-04-19T06:05:08.489Z,67.50
2023-04-19T06:06:03.043Z,67.33
2023-04-19T06:07:04.514Z,67.57
2023-04-19T06:08:03.409Z,67.57
2023-04-19T06:09:02.987Z,68.27
2023-04-19T06:10:02.951Z,67.97
2023-04-19T06:11:11.810Z,68.07
2023-04-19T06:12:08.952Z,67.97
2023-04-19T06:13:02.919Z,67.97
2023-04-19T06:14:02.925Z,67.87
2023-04-19T06:15:02.901Z,68.21
2023-04-19T06:16:03.018Z,68.31
2023-04-19T06:17:02.878Z,68.85
2023-04-19T06:18:02.925Z,69.06
2023-04-19T06:19:02.870Z,69.15
2023-04-19T06:20:02.848Z,68.92
2023-04-19T06:21:02.825Z,68.62
2023-04-19T06:22:02.820Z,68.92
2023-04-19T06:23:07.827Z,68.82
2023-04-19T06:24:02.809Z,69.87
2023-04-19T06:25:02.781Z,69.90
2023-04-19T06:26:02.772Z,70.41
2023-04-19T06:27:02.755Z,70.51
2023-04-19T06:28:02.746Z,70.54
2023-04-19T06:29:02.768Z,71.15
2023-04-19T06:30:02.736Z,71.77
2023-04-19T06:31:02.841Z,72.21
2023-04-19T06:32:02.769Z,71.87
2023-04-19T06:33:02.752Z,72.41
2023-04-19T06:34:07.714Z,72.41
2023-04-19T06:35:02.676Z,72.92
2023-04-19T06:36:02.670Z,72.82
2023-04-19T06:37:02.646Z,72.72
2023-04-19T06:38:02.629Z,72.52
2023-04-19T06:39:02.652Z,72.52
2023-04-19T06:40:02.619Z,72.82
2023-04-19T06:41:02.613Z,72.58
2023-04-19T06:42:02.588Z,72.28
2023-04-19T06:43:02.594Z,72.04
2023-04-19T06:44:02.563Z,70.99
2023-04-19T06:45:07.581Z,70.58
2023-04-19T06:46:02.570Z,70.45
2023-04-19T06:47:02.638Z,69.90
2023-04-19T06:48:02.834Z,68.14
2023-04-19T06:49:02.508Z,67.97
2023-04-19T06:50:02.507Z,66.60
2023-04-19T06:51:02.496Z,64.40
2023-04-19T06:52:02.476Z,62.41
2023-04-19T06:53:04.712Z,62.21
2023-04-19T06:54:02.457Z,62.65
2023-04-19T06:55:02.452Z,63.65
2023-04-19T06:56:07.453Z,65.23
2023-04-19T06:57:02.433Z,66.99
2023-04-19T06:58:02.407Z,67.30
2023-04-19T06:59:02.395Z,66.46
2023-04-19T07:00:02.399Z,65.58
2023-04-19T07:01:02.438Z,64.67
2023-04-19T07:02:02.431Z,65.10
2023-04-19T07:03:02.496Z,64.67
2023-04-19T07:04:02.620Z,64.33
2023-04-19T07:05:02.351Z,64.10
2023-04-19T07:06:02.311Z,62.72
2023-04-19T07:07:07.470Z,61.88
2023-04-19T07:08:02.304Z,61.65
2023-04-19T07:09:02.296Z,60.84
2023-04-19T07:10:02.319Z,61.01
2023-04-19T07:11:02.258Z,60.71
2023-04-19T07:12:02.509Z,59.29
2023-04-19T07:13:02.281Z,59.47
2023-04-19T07:14:02.219Z,59.56
2023-04-19T07:15:02.214Z,59.03
2023-04-19T07:16:02.266Z,59.06
2023-04-19T07:17:02.180Z,58.73
2023-04-19T07:18:07.276Z,59.34
2023-04-19T07:19:02.163Z,58.96
2023-04-19T07:20:02.201Z,60.63
2023-04-19T07:21:02.170Z,60.94
2023-04-19T07:22:02.130Z,61.40
2023-04-19T07:23:02.116Z,62.54
2023-04-19T07:24:02.124Z,63.32
2023-04-19T07:25:02.190Z,64.26
2023-04-19T07:26:02.088Z,64.49
2023-04-19T07:27:02.179Z,65.41
2023-04-19T07:28:02.059Z,66.15
2023-04-19T07:29:07.122Z,66.55
2023-04-19T07:30:02.063Z,67.57
2023-04-19T07:31:02.037Z,67.16
2023-04-19T07:32:02.089Z,67.88
2023-04-19T07:33:02.071Z,67.27
2023-04-19T07:34:01.987Z,67.57
2023-04-19T07:35:01.994Z,67.67
2023-04-19T07:36:02.038Z,67.47
2023-04-19T07:37:02.098Z,67.13
2023-04-19T07:38:01.941Z,67.27
2023-04-19T07:39:01.971Z,67.88
2023-04-19T07:40:06.970Z,67.77
2023-04-19T07:41:01.909Z,68.38
2023-04-19T07:42:01.897Z,68.11
2023-04-19T07:43:01.904Z,67.91
2023-04-19T07:44:01.873Z,68.41
2023-04-19T07:45:01.915Z,69.06
2023-04-19T07:46:01.915Z,69.26
2023-04-19T07:47:01.843Z,69.67
2023-04-19T07:48:01.936Z,69.77
2023-04-19T07:49:01.831Z,69.26
2023-04-19T07:50:01.843Z,69.57
2023-04-19T07:51:07.023Z,69.67
2023-04-19T07:52:01.853Z,69.77
2023-04-19T07:53:01.830Z,70.41
2023-04-19T07:54:01.772Z,70.10
2023-04-19T07:55:01.753Z,70.10
2023-04-19T07:56:01.733Z,69.87
2023-04-19T07:57:01.722Z,70.38
2023-04-19T07:58:01.756Z,70.07
2023-04-19T07:59:08.564Z,70.31
2023-04-19T08:00:02.273Z,70.62
2023-04-19T08:01:01.738Z,70.62
2023-04-19T08:02:06.777Z,70.31
2023-04-19T08:03:01.820Z,71.06
2023-04-19T08:04:01.967Z,70.95
2023-04-19T08:05:01.935Z,71.12
2023-04-19T08:06:01.646Z,70.62
2023-04-19T08:07:01.651Z,70.75
2023-04-19T08:08:01.613Z,70.82
2023-04-19T08:09:01.607Z,70.34
2023-04-19T08:10:01.787Z,70.41
2023-04-19T08:11:02.273Z,70.55
2023-04-19T08:12:01.683Z,70.55
2023-04-19T08:13:06.978Z,70.62
2023-04-19T08:14:09.416Z,70.51
2023-04-19T08:15:14.818Z,70.72
2023-04-19T08:16:40.194Z,70.21
2023-04-19T08:18:01.609Z,70.65
2023-04-19T08:19:01.481Z,70.62
2023-04-19T08:20:01.593Z,70.62
2023-04-19T08:21:01.459Z,70.21
2023-04-19T08:22:01.468Z,70.21
2023-04-19T08:23:10.393Z,70.31
2023-04-19T08:24:07.457Z,70.55
2023-04-19T08:25:01.425Z,70.62
2023-04-19T08:26:01.408Z,70.34
2023-04-19T08:27:01.471Z,70.31
2023-04-19T08:28:01.396Z,70.41
2023-04-19T08:29:01.372Z,70.21
2023-04-19T08:30:01.372Z,70.48
2023-04-19T08:31:01.351Z,71.09
2023-04-19T08:32:01.412Z,70.89
2023-04-19T08:33:01.423Z,70.68
2023-04-19T08:34:01.330Z,70.58
2023-04-19T08:35:06.337Z,71.80
2023-04-19T08:36:01.299Z,71.40
2023-04-19T08:37:04.315Z,70.58
2023-04-19T08:38:02.663Z,70.55
2023-04-19T08:39:06.742Z,70.28
2023-04-19T08:40:02.275Z,70.58
2023-04-19T08:41:01.242Z,70.48
2023-04-19T08:42:06.816Z,70.58
2023-04-19T08:43:01.216Z,70.04
2023-04-19T08:44:01.210Z,70.35
2023-04-19T08:46:06.255Z,69.94
2023-04-19T08:47:01.180Z,69.74
2023-04-19T08:48:02.148Z,69.67
2023-04-19T08:49:01.149Z,69.74
2023-04-19T08:50:14.044Z,70.07
2023-04-19T08:51:05.018Z,70.18
2023-04-19T08:52:01.123Z,70.28
2023-04-19T08:53:12.358Z,70.07
2023-04-19T08:54:01.102Z,70.45
2023-04-19T08:55:01.177Z,69.74
2023-04-19T08:57:06.078Z,69.60
2023-04-19T08:58:01.606Z,68.38
2023-04-19T08:59:15.602Z,68.35
2023-04-19T09:00:01.043Z,69.50
2023-04-19T09:01:01.053Z,69.20
2023-04-19T09:02:01.130Z,69.09
2023-04-19T09:03:01.218Z,69.40
2023-04-19T09:04:07.283Z,68.35
2023-04-19T09:05:01.224Z,68.73
2023-04-19T09:06:01.074Z,67.91
2023-04-19T09:07:00.938Z,68.22
2023-04-19T09:08:05.950Z,68.01
2023-04-19T09:09:00.919Z,67.50
2023-04-19T09:10:03.695Z,67.71
2023-04-19T09:11:00.921Z,67.20
2023-04-19T09:12:00.893Z,67.30
2023-04-19T09:13:00.872Z,67.61
2023-04-19T09:14:00.856Z,67.50
2023-04-19T09:15:02.527Z,67.81
2023-04-19T09:16:00.922Z,67.50
2023-04-19T09:17:00.825Z,67.30
2023-04-19T09:18:00.845Z,67.30
2023-04-19T09:20:00.798Z,68.86
2023-04-19T09:21:00.782Z,68.35
2023-04-19T09:22:00.776Z,67.84
2023-04-19T09:23:00.757Z,68.12
2023-04-19T09:24:03.059Z,68.15
2023-04-19T09:26:22.154Z,67.84
2023-04-19T09:27:00.733Z,68.86
2023-04-19T09:28:00.705Z,68.25
2023-04-19T09:29:00.685Z,68.55
2023-04-19T09:30:05.713Z,68.28
2023-04-19T09:31:15.282Z,68.25
2023-04-19T09:32:00.783Z,68.55
2023-04-19T09:33:00.704Z,68.28
2023-04-19T09:34:00.633Z,68.35
2023-04-19T09:35:00.628Z,68.76
2023-04-19T09:36:00.605Z,68.28
2023-04-19T09:37:10.998Z,68.15
2023-04-19T09:38:06.244Z,67.94
2023-04-19T09:39:01.567Z,68.15
2023-04-19T09:40:00.574Z,68.15
2023-04-19T09:41:05.565Z,68.59
2023-04-19T09:42:00.532Z,68.41
2023-04-19T09:43:12.983Z,68.49
2023-04-19T09:44:21.615Z,68.18
2023-04-19T09:45:21.459Z,68.79
2023-04-19T09:46:01.575Z,68.69
2023-04-19T09:47:00.510Z,67.88
2023-04-19T09:48:00.554Z,68.69
2023-04-19T09:49:04.043Z,68.38
2023-04-19T09:50:04.344Z,68.18
2023-04-19T09:51:05.951Z,68.69
2023-04-19T09:52:06.455Z,68.59
2023-04-19T09:53:00.413Z,68.38
2023-04-19T09:54:00.397Z,68.59
2023-04-19T09:55:01.042Z,68.38
2023-04-19T09:56:02.746Z,68.69
2023-04-19T09:57:01.595Z,68.38
2023-04-19T09:58:00.379Z,67.88
2023-04-19T09:59:12.594Z,68.05
2023-04-19T10:00:01.373Z,68.05
2023-04-19T10:01:13.425Z,68.12
2023-04-19T10:02:00.404Z,67.44
2023-04-19T10:03:05.369Z,67.54
2023-04-19T10:04:13.749Z,67.84
2023-04-19T10:05:19.023Z,67.84
2023-04-19T10:06:10.195Z,68.18
2023-04-19T10:08:00.602Z,68.18
2023-04-19T10:09:00.220Z,68.01
2023-04-19T10:10:11.766Z,68.41
2023-04-19T10:11:01.202Z,68.72
2023-04-19T10:12:06.624Z,67.91
2023-04-19T10:13:18.344Z,68.01
2023-04-19T10:14:05.208Z,68.32
2023-04-19T10:15:00.201Z,68.82
2023-04-19T10:16:11.585Z,68.52
2023-04-19T10:17:00.199Z,68.75
2023-04-19T10:18:00.187Z,68.75
2023-04-19T10:19:00.130Z,68.85
2023-04-19T10:20:00.163Z,68.82
2023-04-19T10:21:00.212Z,68.85
2023-04-19T10:22:00.073Z,68.65
2023-04-19T10:23:00.060Z,68.82
2023-04-19T10:24:00.068Z,68.21
2023-04-19T10:25:05.074Z,68.21
2023-04-19T10:26:00.045Z,68.72
2023-04-19T10:27:00.016Z,68.24
2023-04-19T10:28:00.012Z,68.85
2023-04-19T10:29:00.013Z,68.65
2023-04-19T10:30:00.027Z,69.16
2023-04-19T10:30:59.983Z,68.44
2023-04-19T10:31:59.989Z,68.68
2023-04-19T10:33:00.012Z,69.09
2023-04-19T10:33:59.942Z,69.29
2023-04-19T10:34:59.935Z,68.99
2023-04-19T10:36:04.944Z,68.48
2023-04-19T10:36:59.912Z,68.88
2023-04-19T10:37:59.906Z,68.48
2023-04-19T10:38:59.885Z,68.88
2023-04-19T10:39:59.883Z,68.88
2023-04-19T10:40:59.885Z,68.38
2023-04-19T10:41:59.869Z,68.48
2023-04-19T10:42:59.842Z,68.38
2023-04-19T10:43:59.829Z,68.79
2023-04-19T10:44:59.824Z,68.68
2023-04-19T10:46:00.046Z,68.99
2023-04-19T10:47:04.822Z,68.58
2023-04-19T10:47:59.858Z,68.27
2023-04-19T10:48:59.766Z,67.77
2023-04-19T10:49:59.753Z,68.10
2023-04-19T10:50:59.788Z,67.80
2023-04-19T10:51:59.762Z,67.77
2023-04-19T10:52:59.740Z,68.10
2023-04-19T10:53:59.718Z,68.10
2023-04-19T10:54:59.705Z,67.77
2023-04-19T10:55:59.704Z,68.10
2023-04-19T10:56:59.679Z,67.80
2023-04-19T10:58:04.700Z,67.57
2023-04-19T10:58:59.658Z,67.36
2023-04-19T10:59:59.645Z,67.16
2023-04-19T11:00:59.695Z,66.96
2023-04-19T11:01:59.733Z,66.41
2023-04-19T11:02:59.766Z,66.41
2023-04-19T11:03:59.942Z,65.36
2023-04-19T11:04:59.599Z,65.88
2023-04-19T11:05:59.593Z,64.86
2023-04-19T11:06:59.573Z,63.88
2023-04-19T11:07:59.555Z,63.34
2023-04-19T11:09:04.572Z,63.11
2023-04-19T11:09:59.539Z,61.05
2023-04-19T11:10:59.567Z,60.93
2023-04-19T11:11:59.507Z,60.21
2023-04-19T11:12:59.501Z,60.28
2023-04-19T11:13:59.485Z,59.85
2023-04-19T11:14:59.487Z,59.58
2023-04-19T11:15:59.551Z,59.38
2023-04-19T11:16:59.517Z,59.27
2023-04-19T11:18:11.926Z,59.58
2023-04-19T11:19:00.429Z,59.27
2023-04-19T11:20:04.441Z,59.20
2023-04-19T11:20:59.412Z,59.53
2023-04-19T11:21:59.434Z,60.21
2023-04-19T11:22:59.388Z,59.61
2023-04-19T11:23:59.372Z,59.61
2023-04-19T11:24:59.361Z,58.76
2023-04-19T11:25:59.351Z,58.76
2023-04-19T11:26:59.347Z,58.56
2023-04-19T11:27:59.333Z,59.38
2023-04-19T11:28:59.316Z,58.23
2023-04-19T11:29:59.308Z,57.32
2023-04-19T11:31:04.378Z,57.73
2023-04-19T11:31:59.289Z,57.50
2023-04-19T11:32:59.283Z,57.70
2023-04-19T11:33:59.426Z,57.20
2023-04-19T11:34:59.255Z,57.07
2023-04-19T11:35:59.241Z,56.26
2023-04-19T11:36:59.232Z,54.82
2023-04-19T11:37:59.254Z,55.40
2023-04-19T11:38:59.224Z,54.51
2023-04-19T11:39:59.202Z,54.49
2023-04-19T11:40:59.188Z,55.32
2023-04-19T11:42:04.198Z,54.51
2023-04-19T11:42:59.166Z,54.53
2023-04-19T11:43:59.146Z,54.64
2023-04-19T11:44:59.144Z,54.53
2023-04-19T11:45:59.141Z,54.76
2023-04-19T11:46:59.222Z,54.46
2023-04-19T11:47:59.150Z,54.53
2023-04-19T11:48:59.110Z,54.84
2023-04-19T11:49:59.104Z,54.76
2023-04-19T11:50:59.072Z,54.36
2023-04-19T11:51:59.076Z,55.07
2023-04-19T11:53:04.083Z,54.46
2023-04-19T11:53:59.041Z,55.57
2023-04-19T11:54:59.021Z,54.86
2023-04-19T11:55:59.023Z,54.89
2023-04-19T11:56:59.008Z,55.07
2023-04-19T11:57:59.000Z,54.76
2023-04-19T11:58:59.000Z,53.85
2023-04-19T11:59:58.986Z,54.69
2023-04-19T12:00:59.030Z,54.79
2023-04-19T12:01:58.991Z,54.69
2023-04-19T12:02:59.110Z,55.30
2023-04-19T12:04:03.995Z,54.89
2023-04-19T12:04:59.170Z,54.18
2023-04-19T12:05:59.072Z,54.59
2023-04-19T12:06:58.901Z,54.59
2023-04-19T12:07:58.910Z,54.99
2023-04-19T12:08:58.875Z,54.89
2023-04-19T12:09:58.852Z,54.97
2023-04-19T12:10:58.843Z,55.27
2023-04-19T12:11:58.838Z,54.79
2023-04-19T12:12:58.852Z,54.97
2023-04-19T12:13:58.829Z,54.66
2023-04-19T12:15:03.826Z,54.66
2023-04-19T12:15:58.790Z,54.89
2023-04-19T12:16:58.865Z,54.59
2023-04-19T12:17:58.826Z,54.99
2023-04-19T12:18:58.753Z,54.38
2023-04-19T12:19:58.744Z,53.67
2023-04-19T12:21:01.273Z,53.88
2023-04-19T12:21:58.787Z,53.30
2023-04-19T12:22:58.722Z,52.97
2023-04-19T12:23:58.704Z,53.07
2023-04-19T12:24:58.691Z,53.19
2023-04-19T12:26:03.712Z,50.94
2023-04-19T12:26:59.865Z,50.41
2023-04-19T12:27:58.657Z,49.30
2023-04-19T12:28:58.649Z,49.17
2023-04-19T12:29:58.631Z,50.49
2023-04-19T12:30:58.617Z,48.74
2023-04-19T12:31:58.686Z,47.67
2023-04-19T12:32:58.688Z,46.71
2023-04-19T12:33:58.593Z,45.16
2023-04-19T12:34:58.569Z,44.31
2023-04-19T12:35:58.555Z,43.96
2023-04-19T12:37:03.592Z,41.75
2023-04-19T12:37:58.548Z,43.76
2023-04-19T12:38:58.533Z,41.65
2023-04-19T12:39:58.513Z,42.25
2023-04-19T12:40:58.496Z,42.58
2023-04-19T12:41:58.506Z,43.00
2023-04-19T12:42:58.484Z,43.12
2023-04-19T12:43:58.461Z,42.82
2023-04-19T12:44:58.454Z,43.73
2023-04-19T12:45:58.512Z,44.02
2023-04-19T12:46:58.461Z,43.40
2023-04-19T12:48:03.498Z,43.51
2023-04-19T12:48:58.408Z,43.20
2023-04-19T12:49:58.414Z,43.93
2023-04-19T12:50:58.391Z,44.15
2023-04-19T12:51:58.374Z,43.95
2023-04-19T12:52:58.403Z,44.25
2023-04-19T12:53:58.387Z,43.74
2023-04-19T12:54:58.348Z,43.95
2023-04-19T12:55:58.327Z,44.87
2023-04-19T12:56:58.321Z,44.47
2023-04-19T12:57:58.324Z,44.17